Time;durP1;ratioP1;P1;durP2;ratioP2;P2;SDS_P1;SDS_P2;PMS_P1;PMS_P2;Temp;Humidity;BMP_temperature;BMP_pressure;BME280_temperature;BME280_humidity;BME280_pressure;Samples;Min_cycle;Max_cycle;Signal;HPM_P1;HPM_P2
2022/06/17 00:00:48;;;;;;;2.15;1.60;;;;;;;18.43;42.87;99601.22;2621538;51;20045;-72
2022/06/17 00:03:18;;;;;;;1.73;1.63;;;;;;;18.41;43.36;99599.81;2621554;51;20026;-71
2022/06/17 00:05:48;;;;;;;2.00;1.50;;;;;;;18.41;43.54;99607.84;2621339;54;20030;-73
2022/06/17 00:08:27;;;;;;;16.30;2.00;;;;;;;18.42;43.15;99609.50;2621615;54;20026;-72
2022/06/17 00:10:58;;;;;;;3.55;1.48;;;;;;;18.34;43.31;99602.59;2620598;51;20034;-70
2022/06/17 00:13:28;;;;;;;2.70;1.60;;;;;;;18.24;43.52;99607.63;2620297;54;20150;-71
2022/06/17 00:15:58;;;;;;;2.67;1.60;;;;;;;18.15;43.42;99607.09;2619485;54;20038;-71
2022/06/17 00:18:27;;;;;;;3.72;2.13;;;;;;;18.07;43.66;99594.81;2619061;54;20034;-70
2022/06/17 00:20:57;;;;;;;2.33;1.50;;;;;;;18.09;44.06;99612.53;2619184;54;20042;-70
2022/06/17 00:23:31;;;;;;;3.13;1.60;;;;;;;18.07;43.90;99602.84;2618762;47;20530;-70
2022/06/17 00:26:00;;;;;;;3.35;1.70;;;;;;;18.05;44.03;99596.09;2619356;54;20562;-71
2022/06/17 00:28:30;;;;;;;2.47;2.28;;;;;;;17.98;44.58;99598.03;2620456;39;20124;-72
2022/06/17 00:31:00;;;;;;;3.85;1.50;;;;;;;17.88;44.87;99603.03;2619706;31;20538;-71
2022/06/17 00:33:30;;;;;;;2.28;1.60;;;;;;;17.81;45.23;99600.47;2619254;54;20038;-70
2022/06/17 00:36:00;;;;;;;2.85;1.90;;;;;;;17.81;45.37;99601.28;2623436;54;20038;-69
2022/06/17 00:38:36;;;;;;;2.05;1.85;;;;;;;17.85;45.06;99592.81;2623547;47;20042;-70
2022/06/17 00:41:16;;;;;;;1.70;1.60;;;;;;;17.85;45.23;99590.94;2623530;54;20034;-70
2022/06/17 00:43:46;;;;;;;7.45;1.98;;;;;;;17.85;45.36;99587.47;2623875;54;20034;-69
2022/06/17 00:46:28;;;;;;;3.03;2.10;;;;;;;17.83;45.15;99587.66;2623744;54;20030;-70
2022/06/17 00:49:07;;;;;;;6.50;2.00;;;;;;;17.69;45.15;99584.28;2623589;47;20605;-70
2022/06/17 00:51:44;;;;;;;2.78;1.92;;;;;;;17.53;45.50;99587.50;2619958;54;20039;-70
2022/06/17 00:54:24;;;;;;;1.88;1.70;;;;;;;17.44;46.12;99583.47;2618332;54;20018;-70
2022/06/17 00:56:56;;;;;;;2.03;1.40;;;;;;;17.39;45.84;99585.97;2618602;54;20046;-71
2022/06/17 00:59:27;;;;;;;2.22;2.00;;;;;;;17.38;46.20;99587.81;2618178;54;20022;-70
2022/06/17 01:02:04;;;;;;;2.30;1.85;;;;;;;17.31;46.29;99585.22;2617872;47;20042;-69
2022/06/17 01:04:43;;;;;;;2.78;1.88;;;;;;;17.33;46.22;99587.66;2618936;39;20705;-70
2022/06/17 01:07:20;;;;;;;2.65;2.05;;;;;;;17.32;46.18;99594.88;2617515;54;20045;-69
2022/06/17 01:09:57;;;;;;;2.58;2.00;;;;;;;17.32;46.22;99597.53;2618335;39;20422;-69
2022/06/17 01:12:31;;;;;;;2.25;1.85;;;;;;;17.39;46.23;99599.31;2618022;54;20053;-69
2022/06/17 01:15:02;;;;;;;3.27;1.63;;;;;;;17.44;46.50;99600.31;2618251;54;20023;-69
2022/06/17 01:17:39;;;;;;;2.15;1.80;;;;;;;17.51;45.83;99594.91;2617424;47;20035;-70
2022/06/17 01:20:14;;;;;;;5.35;2.10;;;;;;;17.49;46.36;99587.13;2618058;39;20398;-69
2022/06/17 01:22:50;;;;;;;3.05;1.80;;;;;;;17.41;46.88;99589.25;2617963;54;20121;-70
2022/06/17 01:25:23;;;;;;;2.90;1.90;;;;;;;17.33;47.16;99579.66;2617635;46;20027;-70
2022/06/17 01:27:55;;;;;;;4.82;1.80;;;;;;;17.35;46.88;99580.25;2617482;46;20054;-69
2022/06/17 01:30:27;;;;;;;2.88;1.98;;;;;;;17.37;46.84;99575.50;2617552;47;20030;-69
2022/06/17 01:33:00;;;;;;;2.05;1.67;;;;;;;17.36;46.93;99573.06;2617283;47;20032;-69
2022/06/17 01:35:36;;;;;;;3.33;2.10;;;;;;;17.31;46.79;99571.84;2618162;54;20022;-70
2022/06/17 01:38:08;;;;;;;2.88;2.35;;;;;;;17.30;47.42;99578.22;2617342;47;20034;-70
2022/06/17 01:40:39;;;;;;;6.28;2.28;;;;;;;17.23;46.99;99574.78;2617548;47;20062;-69
2022/06/17 01:43:12;;;;;;;2.03;1.80;;;;;;;17.14;47.36;99592.09;2617394;54;20049;-69
2022/06/17 01:45:48;;;;;;;2.17;1.70;;;;;;;16.98;47.58;99582.78;2617970;39;20434;-70
2022/06/17 01:48:23;;;;;;;2.78;1.75;;;;;;;16.93;47.84;99589.78;2617796;54;20035;-69
2022/06/17 01:50:57;;;;;;;2.20;2.00;;;;;;;16.97;47.95;99582.97;2617615;54;20035;-70
2022/06/17 01:53:34;;;;;;;3.60;1.95;;;;;;;16.97;48.31;99586.47;2617240;47;20029;-70
2022/06/17 01:56:09;;;;;;;3.40;2.53;;;;;;;16.88;48.67;99594.94;2617671;54;20034;-69
2022/06/17 01:58:43;;;;;;;2.08;1.77;;;;;;;16.82;48.67;99592.09;2617520;54;20151;-70
2022/06/17 02:01:14;;;;;;;2.78;1.70;;;;;;;16.75;49.09;99587.84;2617754;54;20031;-69
2022/06/17 02:03:49;;;;;;;2.65;2.10;;;;;;;16.72;49.08;99588.22;2617658;54;20026;-70
2022/06/17 02:06:26;;;;;;;2.97;1.98;;;;;;;16.67;49.46;99582.72;2617746;54;20038;-70
2022/06/17 02:09:00;;;;;;;2.20;1.80;;;;;;;16.70;49.30;99587.63;2617748;51;20109;-70
2022/06/17 02:11:31;;;;;;;2.78;1.88;;;;;;;16.64;49.23;99588.47;2617925;47;20057;-69
2022/06/17 02:14:09;;;;;;;2.78;2.13;;;;;;;16.48;49.81;99595.91;2617367;46;20049;-69
2022/06/17 02:17:07;;;;;;;3.78;1.85;;;;;;;16.32;50.40;99601.72;2617578;47;20046;-71
2022/06/17 02:19:53;;;;;;;2.78;2.05;;;;;;;16.08;50.45;99597.88;2617673;47;20054;-70
2022/06/17 02:22:29;;;;;;;6.05;1.77;;;;;;;16.14;50.72;99591.72;2617443;47;20034;-70
2022/06/17 02:25:05;;;;;;;2.65;1.95;;;;;;;16.31;50.85;99587.56;2618053;54;20022;-70
2022/06/17 02:27:37;;;;;;;2.42;2.20;;;;;;;16.43;50.62;99585.06;2618346;54;20057;-71
2022/06/17 02:30:09;;;;;;;2.50;2.20;;;;;;;16.49;50.66;99589.56;2617949;54;20026;-71
2022/06/17 02:32:41;;;;;;;4.70;1.90;;;;;;;16.43;50.58;99589.59;2617295;54;20026;-69
2022/06/17 02:35:21;;;;;;;5.60;2.15;;;;;;;16.42;50.58;99591.44;2617982;54;20026;-71
2022/06/17 02:37:54;;;;;;;3.17;2.22;;;;;;;16.30;51.26;99598.47;2617886;54;20578;-71
2022/06/17 02:40:32;;;;;;;4.07;2.10;;;;;;;16.14;51.29;99599.72;2617831;54;20053;-70
2022/06/17 02:43:05;;;;;;;5.28;2.78;;;;;;;16.14;51.90;99601.59;2617193;54;20042;-71
2022/06/17 02:45:41;;;;;;;2.33;2.13;;;;;;;16.14;51.67;99597.06;2617771;39;20445;-71
2022/06/17 02:48:20;;;;;;;4.35;2.10;;;;;;;16.20;51.42;99600.72;2617341;47;20050;-71
2022/06/17 02:50:53;;;;;;;2.30;2.08;;;;;;;16.15;51.30;99600.56;2617399;54;20052;-72
2022/06/17 02:53:30;;;;;;;2.10;1.90;;;;;;;16.09;51.63;99597.69;2617154;54;20019;-72
2022/06/17 02:56:06;;;;;;;1.85;1.75;;;;;;;16.08;51.78;99606.75;2617919;39;20428;-71
2022/06/17 02:58:46;;;;;;;2.60;2.08;;;;;;;16.05;51.70;99603.66;2617724;54;20041;-71
2022/06/17 03:01:20;;;;;;;2.63;2.40;;;;;;;16.02;52.00;99604.06;2617035;54;20120;-71
2022/06/17 03:03:58;;;;;;;3.22;2.47;;;;;;;15.95;52.40;99606.75;2617811;47;20041;-71
2022/06/17 03:06:35;;;;;;;2.20;2.00;;;;;;;15.94;52.57;99605.09;2617374;47;20034;-72
2022/06/17 03:09:18;;;;;;;2.20;2.00;;;;;;;15.96;52.69;99607.56;2619056;47;20033;-73
2022/06/17 03:11:53;;;;;;;;;;;;;;;15.92;52.45;99609.84;2620324;47;20109;-71
2022/06/17 03:14:24;;;;;;;4.82;1.90;;;;;;;15.83;52.56;99614.53;2618725;54;19954;-71
2022/06/17 03:16:56;;;;;;;4.05;2.30;;;;;;;15.76;52.94;99624.41;2619355;54;20631;-71
2022/06/17 03:19:30;;;;;;;2.50;2.25;;;;;;;15.75;52.95;99614.75;2623119;54;20042;-72
2022/06/17 03:22:00;;;;;;;3.13;2.10;;;;;;;15.78;53.10;99622.34;2617159;54;20021;-71
2022/06/17 03:24:43;;;;;;;2.33;2.10;;;;;;;15.81;53.18;99627.28;2616776;47;20692;-71
2022/06/17 03:27:21;;;;;;;5.13;2.28;;;;;;;15.78;52.99;99637.53;2617018;54;20034;-71
2022/06/17 03:29:53;;;;;;;4.10;2.38;;;;;;;15.77;52.81;99636.72;2616859;54;20031;-71
2022/06/17 03:32:27;;;;;;;2.40;2.10;;;;;;;15.79;52.86;99650.63;2617282;39;20435;-72
2022/06/17 03:34:58;;;;;;;5.60;3.38;;;;;;;15.74;53.37;99642.44;2616616;54;20038;-71
2022/06/17 03:37:33;;;;;;;4.18;2.72;;;;;;;15.72;53.40;99652.50;2617014;47;20058;-70
2022/06/17 03:40:12;;;;;;;5.28;2.10;;;;;;;15.74;53.53;99652.28;2617622;54;20031;-71
2022/06/17 03:42:57;;;;;;;4.00;2.28;;;;;;;15.75;53.59;99646.75;2616541;47;20036;-71
2022/06/17 03:45:28;;;;;;;;;;;;;;;15.82;53.33;99644.09;2617010;54;20034;-71
2022/06/17 03:48:07;;;;;;;2.92;2.15;;;;;;;15.87;53.32;99646.13;2617815;47;19952;-70
2022/06/17 03:50:43;;;;;;;2.45;2.10;;;;;;;15.83;52.93;99648.38;2622987;54;20018;-70
2022/06/17 03:53:24;;;;;;;3.47;2.30;;;;;;;15.69;52.99;99644.09;2620422;47;20561;-70
2022/06/17 03:55:56;;;;;;;3.35;2.38;;;;;;;15.79;53.28;99634.66;2623541;54;20536;-72
2022/06/17 03:58:29;;;;;;;3.53;2.25;;;;;;;15.72;53.10;99635.69;2624229;47;20023;-72
2022/06/17 04:01:04;;;;;;;3.05;2.30;;;;;;;15.59;53.91;99637.31;2624004;54;20041;-71
2022/06/17 04:03:36;;;;;;;5.80;2.53;;;;;;;15.55;53.97;99643.22;2623389;54;20026;-71
2022/06/17 04:06:11;;;;;;;3.08;2.10;;;;;;;15.48;53.74;99639.75;2623045;51;20026;-71
2022/06/17 04:08:54;;;;;;;3.15;2.50;;;;;;;15.29;54.38;99646.69;2620639;47;20077;-72
2022/06/17 04:11:28;;;;;;;3.70;2.00;;;;;;;15.27;54.82;99656.75;2619125;54;20030;-72
2022/06/17 04:14:03;;;;;;;3.25;2.40;;;;;;;15.46;54.77;99658.59;2619413;54;20027;-71
2022/06/17 04:16:39;;;;;;;2.63;2.17;;;;;;;15.72;54.17;99662.34;2618146;47;20034;-72
2022/06/17 04:19:17;;;;;;;3.08;2.20;;;;;;;15.93;53.88;99656.00;2617584;54;20050;-72
2022/06/17 04:21:56;;;;;;;4.45;2.50;;;;;;;16.05;53.12;99655.16;2617997;54;20039;-69
2022/06/17 04:24:30;;;;;;;4.75;3.42;;;;;;;16.24;53.05;99663.31;2618798;39;20430;-71
2022/06/17 04:27:15;;;;;;;4.57;3.53;;;;;;;16.34;52.83;99669.88;2616745;47;20058;-70
2022/06/17 04:29:52;;;;;;;4.10;2.65;;;;;;;16.48;52.34;99664.50;2618723;47;20569;-70
2022/06/17 04:32:28;;;;;;;4.93;2.85;;;;;;;16.47;52.68;99662.84;2617916;54;20034;-70
2022/06/17 04:34:58;;;;;;;2.88;2.58;;;;;;;16.62;52.04;99663.44;2618205;47;20030;-71
2022/06/17 04:37:29;;;;;;;2.90;2.60;;;;;;;16.53;51.88;99660.19;2618134;47;20057;-70
2022/06/17 04:40:28;;;;;;;2.80;2.40;;;;;;;16.48;52.34;99651.16;2618075;54;20019;-70
2022/06/17 04:43:22;;;;;;;3.67;2.47;;;;;;;16.44;51.63;99664.09;2617792;54;20029;-70
2022/06/17 04:46:04;;;;;;;4.10;2.72;;;;;;;16.37;52.19;99663.31;2622055;47;20031;-71
2022/06/17 04:48:34;;;;;;;4.97;2.65;;;;;;;16.28;52.24;99667.19;2622250;54;20037;-70
2022/06/17 04:51:06;;;;;;;3.00;2.53;;;;;;;16.33;52.13;99675.44;2622641;47;20035;-70
2022/06/17 04:53:38;;;;;;;3.50;2.70;;;;;;;16.58;52.10;99676.38;2622477;47;20018;-70
2022/06/17 04:56:36;;;;;;;4.15;2.70;;;;;;;16.70;51.37;99671.22;2623602;47;20031;-71
2022/06/17 04:59:32;;;;;;;3.90;2.65;;;;;;;16.80;51.35;99678.78;2623469;54;20023;-70
2022/06/17 05:02:08;;;;;;;3.63;2.35;;;;;;;16.94;51.76;99683.06;2618758;54;20021;-70
2022/06/17 05:04:46;;;;;;;5.63;3.42;;;;;;;17.11;51.42;99682.56;2618535;47;20034;-70
2022/06/17 05:07:16;;;;;;;4.72;3.25;;;;;;;17.26;51.00;99683.91;2618802;51;20030;-69
2022/06/17 05:09:48;;;;;;;3.15;2.60;;;;;;;17.28;50.54;99684.50;2618939;54;20026;-70
2022/06/17 05:12:32;;;;;;;6.43;3.42;;;;;;;17.26;50.19;99686.56;2619638;54;20041;-71
2022/06/17 05:15:06;;;;;;;4.25;2.67;;;;;;;17.18;50.01;99681.47;2620061;47;20030;-71
2022/06/17 05:17:41;;;;;;;3.55;2.30;;;;;;;17.02;50.65;99680.16;2620931;47;20022;-71
2022/06/17 05:20:17;;;;;;;5.30;2.67;;;;;;;17.22;50.63;99679.19;2623138;47;20042;-69
2022/06/17 05:22:52;;;;;;;5.47;2.80;;;;;;;17.28;50.60;99683.69;2622895;47;20030;-70
2022/06/17 05:25:24;;;;;;;3.70;2.70;;;;;;;17.29;50.48;99685.31;2622741;54;20030;-69
2022/06/17 05:27:55;;;;;;;4.80;2.73;;;;;;;17.33;50.01;99689.22;2622994;47;20073;-72
2022/06/17 05:30:25;;;;;;;3.40;2.83;;;;;;;17.46;49.62;99696.31;2622781;54;20030;-72
2022/06/17 05:32:58;;;;;;;3.45;3.03;;;;;;;17.56;49.55;99686.81;2622019;46;20066;-68
2022/06/17 05:35:29;;;;;;;4.88;2.90;;;;;;;17.64;48.98;99683.06;2621770;54;20026;-69
2022/06/17 05:38:00;;;;;;;3.83;2.45;;;;;;;17.64;49.55;99692.94;2620740;47;20045;-70
2022/06/17 05:40:30;;;;;;;3.83;2.88;;;;;;;17.78;49.55;99691.81;2620773;47;20034;-71
2022/06/17 05:43:00;;;;;;;3.25;2.95;;;;;;;17.82;49.32;99682.31;2620523;54;20034;-69
2022/06/17 05:45:31;;;;;;;3.58;2.80;;;;;;;18.05;49.23;99690.56;2621133;47;20091;-70
2022/06/17 05:48:16;;;;;;;4.38;3.03;;;;;;;18.16;48.58;99701.56;2620957;47;20023;-70
2022/06/17 05:50:52;;;;;;;4.15;3.28;;;;;;;18.22;48.78;99708.72;2621910;54;20224;-70
2022/06/17 05:53:33;;;;;;;6.55;3.50;;;;;;;18.26;48.57;99701.91;2621161;47;20026;-70
2022/06/17 05:56:28;;;;;;;3.47;2.53;;;;;;;18.31;48.57;99699.38;2621970;54;20034;-71
2022/06/17 05:58:58;;;;;;;3.80;2.50;;;;;;;18.43;48.45;99697.59;2621778;54;20027;-69
2022/06/17 06:01:28;;;;;;;5.63;2.50;;;;;;;18.56;48.06;99700.13;2622749;50;20026;-70
2022/06/17 06:04:01;;;;;;;2.97;2.67;;;;;;;18.64;47.79;99690.97;2621882;39;20459;-71
2022/06/17 06:06:31;;;;;;;4.88;3.13;;;;;;;18.78;46.96;99694.38;2620822;47;20659;-69
2022/06/17 06:09:02;;;;;;;4.85;2.42;;;;;;;19.02;47.00;99688.09;2621628;31;20530;-71
2022/06/17 06:11:32;;;;;;;8.75;3.25;;;;;;;19.22;46.05;99695.03;2621180;54;20034;-71
2022/06/17 06:14:01;;;;;;;2.55;2.33;;;;;;;19.23;45.51;99697.50;2619954;54;20074;-71
2022/06/17 06:16:32;;;;;;;3.22;2.35;;;;;;;19.17;45.23;99695.72;2618992;54;20562;-71
2022/06/17 06:19:07;;;;;;;5.18;4.00;;;;;;;19.30;45.94;99692.84;2619308;51;20033;-72
2022/06/17 06:21:37;;;;;;;7.47;3.83;;;;;;;19.50;44.95;99692.56;2619930;54;20043;-70
2022/06/17 06:24:08;;;;;;;3.25;2.90;;;;;;;19.54;44.69;99692.94;2617398;46;20081;-71
2022/06/17 06:26:40;;;;;;;3.25;2.70;;;;;;;19.62;44.70;99697.19;2618472;47;20046;-71
2022/06/17 06:29:25;;;;;;;3.97;2.67;;;;;;;19.70;44.45;99683.44;2619403;54;20035;-71
2022/06/17 06:31:57;;;;;;;3.28;2.60;;;;;;;19.75;44.32;99680.88;2618706;54;20022;-70
2022/06/17 06:34:42;;;;;;;15.60;3.08;;;;;;;19.78;43.94;99691.97;2618985;46;20027;-73
2022/06/17 06:37:16;;;;;;;7.32;2.55;;;;;;;19.74;44.05;99682.75;2619062;47;20036;-71
2022/06/17 06:39:46;;;;;;;2.55;2.30;;;;;;;19.79;44.11;99687.41;2618780;54;20031;-70
2022/06/17 06:42:16;;;;;;;5.13;2.50;;;;;;;19.99;44.29;99684.41;2619053;54;20231;-70
2022/06/17 06:45:08;;;;;;;3.65;2.40;;;;;;;20.20;43.81;99691.88;2619506;39;20442;-70
2022/06/17 06:47:43;;;;;;;3.67;2.20;;;;;;;20.25;43.08;99688.50;2618515;54;20027;-70
2022/06/17 06:50:27;;;;;;;3.38;2.20;;;;;;;20.35;43.27;99693.28;2619187;54;20030;-70
2022/06/17 06:52:58;;;;;;;2.58;2.38;;;;;;;20.49;43.00;99694.69;2617866;54;20581;-69
2022/06/17 06:55:28;;;;;;;6.95;2.30;;;;;;;20.45;42.73;99690.81;2618287;46;20022;-71
2022/06/17 06:58:02;;;;;;;4.55;2.70;;;;;;;20.52;42.25;99686.97;2618816;54;20158;-70
2022/06/17 07:00:35;;;;;;;3.65;2.00;;;;;;;20.50;42.77;99682.91;2618002;51;20134;-71
2022/06/17 07:03:06;;;;;;;3.47;2.40;;;;;;;20.64;42.85;99683.47;2619177;54;20030;-71
2022/06/17 07:05:42;;;;;;;2.88;1.60;;;;;;;20.69;42.51;99683.56;2619494;54;20149;-71
2022/06/17 07:08:14;;;;;;;4.65;2.15;;;;;;;20.81;42.53;99681.66;2618370;51;20026;-71
2022/06/17 07:10:46;;;;;;;5.50;2.13;;;;;;;20.95;41.93;99693.78;2618861;47;20049;-72
2022/06/17 07:13:16;;;;;;;3.30;2.20;;;;;;;20.98;41.99;99676.34;2618807;54;20038;-71
2022/06/17 07:15:51;;;;;;;2.15;1.83;;;;;;;20.95;41.77;99677.66;2618858;47;20034;-72
2022/06/17 07:18:23;;;;;;;2.53;2.20;;;;;;;20.99;41.30;99680.69;2619611;54;20049;-73
2022/06/17 07:20:58;;;;;;;8.05;2.60;;;;;;;21.02;41.78;99669.44;2619419;54;20136;-72
2022/06/17 07:23:33;;;;;;;4.30;2.00;;;;;;;21.18;41.01;99671.34;2618383;47;20038;-74
2022/06/17 07:26:09;;;;;;;2.25;1.90;;;;;;;21.22;40.68;99671.69;2619396;54;20026;-71
2022/06/17 07:28:39;;;;;;;3.78;2.03;;;;;;;21.30;40.57;99668.59;2618803;54;20038;-71
2022/06/17 07:31:09;;;;;;;4.97;1.90;;;;;;;21.48;39.81;99667.63;2619378;54;20033;-71
2022/06/17 07:33:39;;;;;;;6.95;5.05;;;;;;;21.68;39.78;99659.09;2619203;54;20553;-72
2022/06/17 07:39:53;;;;;;;3.33;2.03;;;;;;;21.84;39.49;99662.81;2619038;39;20121;-71
2022/06/17 07:41:53;;;;;;;4.85;3.13;;;;;;;21.80;39.81;99669.75;2618136;54;20038;-72
2022/06/17 07:44:22;;;;;;;4.05;1.90;;;;;;;21.93;39.65;99670.25;2619407;54;20034;-72
2022/06/17 07:46:52;;;;;;;3.50;2.35;;;;;;;22.12;39.26;99673.47;2620046;54;20044;-72
2022/06/17 07:49:22;;;;;;;2.28;1.80;;;;;;;22.23;39.25;99675.28;2619630;54;20038;-72
2022/06/17 07:51:54;;;;;;;3.60;1.90;;;;;;;22.25;38.95;99673.19;2618906;54;20042;-71
2022/06/17 07:54:24;;;;;;;2.78;1.80;;;;;;;22.42;39.07;99675.03;2618470;54;20604;-70
2022/06/17 07:56:56;;;;;;;3.45;1.83;;;;;;;22.61;37.96;99673.63;2618412;54;20038;-73
2022/06/17 07:59:26;;;;;;;2.45;1.92;;;;;;;22.74;37.26;99670.59;2618578;54;20030;-72
2022/06/17 08:01:56;;;;;;;2.55;1.60;;;;;;;22.82;36.39;99666.63;2617852;47;20023;-71
2022/06/17 08:04:25;;;;;;;2.05;1.60;;;;;;;22.79;36.25;99659.03;2618651;54;20030;-71
2022/06/17 08:06:58;;;;;;;4.07;1.63;;;;;;;22.90;36.34;99659.97;2618468;54;20046;-73
2022/06/17 08:09:30;;;;;;;2.83;1.70;;;;;;;22.96;35.69;99643.63;2618252;54;20027;-71
2022/06/17 10:32:44;;;;;;;3.75;1.27;;;;;;;26.97;27.52;99612.78;2580147;46;20030;-68
2022/06/17 10:35:18;;;;;;;3.50;1.30;;;;;;;26.85;27.45;99602.28;2619001;54;20034;-68
2022/06/17 10:37:49;;;;;;;1.60;1.23;;;;;;;26.81;28.09;99607.44;2620422;54;20034;-67
2022/06/17 10:40:26;;;;;;;1.42;1.33;;;;;;;26.90;27.46;99604.94;2619385;54;20086;-67
2022/06/17 10:42:59;;;;;;;1.50;1.25;;;;;;;27.02;27.56;99607.31;2618843;54;20035;-67
2022/06/17 10:45:28;;;;;;;4.03;1.30;;;;;;;26.80;27.28;99607.72;2618877;54;20041;-68
2022/06/17 10:48:07;;;;;;;2.10;1.02;;;;;;;26.75;27.87;99603.16;2619049;54;20069;-67
2022/06/17 10:50:37;;;;;;;1.65;1.10;;;;;;;27.02;27.70;99608.13;2621658;39;20445;-68
2022/06/17 10:53:15;;;;;;;1.92;1.15;;;;;;;27.28;27.48;99594.44;2622364;54;20038;-67
2022/06/17 10:55:48;;;;;;;3.70;1.35;;;;;;;27.25;27.07;99603.13;2621875;54;20031;-66
2022/06/17 10:58:24;;;;;;;1.85;1.02;;;;;;;27.17;27.13;99607.25;2622225;54;20038;-68
2022/06/17 11:00:59;;;;;;;1.88;1.17;;;;;;;27.32;26.42;99603.63;2620694;54;20030;-66
2022/06/17 11:03:34;;;;;;;2.30;1.10;;;;;;;27.28;26.78;99599.84;2618777;54;20625;-66
2022/06/17 11:06:07;;;;;;;2.45;1.42;;;;;;;27.42;26.79;99592.66;2618841;47;20053;-66
2022/06/17 11:08:42;;;;;;;2.05;1.13;;;;;;;27.66;25.87;99593.53;2618762;54;20023;-65
2022/06/17 11:13:58;;;;;;;1.58;1.10;;;;;;;27.63;25.61;99596.00;2619538;54;20038;-65
2022/06/17 11:16:30;;;;;;;2.30;1.23;;;;;;;27.60;26.17;99591.16;2620225;54;20042;-67
2022/06/17 11:19:06;;;;;;;2.03;1.20;;;;;;;27.50;25.99;99591.25;2620215;54;20085;-66
2022/06/17 11:21:40;;;;;;;1.73;1.10;;;;;;;27.60;25.74;99572.97;2619455;54;20569;-66
2022/06/17 11:24:20;;;;;;;4.45;1.10;;;;;;;27.73;25.00;99576.09;2620642;39;20470;-66
2022/06/17 11:27:03;;;;;;;1.55;1.10;;;;;;;28.04;24.26;99568.44;2620008;39;20405;-66
2022/06/17 11:29:40;;;;;;;1.00;0.90;;;;;;;28.18;24.52;99558.50;2618095;47;20026;-65
2022/06/17 11:32:30;;;;;;;3.55;1.15;;;;;;;28.32;23.88;99564.84;2617911;54;20037;-66
2022/06/17 11:35:23;;;;;;;1.15;0.90;;;;;;;28.38;22.75;99562.91;2618101;54;20117;-65
2022/06/17 11:37:54;;;;;;;2.20;1.00;;;;;;;28.17;22.81;99556.91;2618592;39;20414;-66
2022/06/17 11:40:26;;;;;;;0.80;0.80;;;;;;;27.96;22.84;99548.16;2618588;54;20847;-66
2022/06/17 11:42:58;;;;;;;0.93;0.80;;;;;;;28.01;23.30;99556.28;2618808;39;20477;-65
2022/06/17 11:45:38;;;;;;;3.30;1.60;;;;;;;28.31;22.60;99549.63;2618603;54;20038;-66
2022/06/17 11:48:19;;;;;;;1.30;0.82;;;;;;;28.26;23.12;99540.75;2620727;54;20037;-65
2022/06/17 11:51:06;;;;;;;0.80;0.80;;;;;;;28.38;23.11;99544.69;2620849;54;20030;-65
2022/06/17 11:53:47;;;;;;;1.38;0.90;;;;;;;28.48;22.95;99541.03;2620372;51;20589;-64
2022/06/17 11:56:33;;;;;;;1.67;0.90;;;;;;;28.32;22.47;99529.50;2620383;54;20045;-65
2022/06/17 11:59:12;;;;;;;1.65;1.10;;;;;;;28.39;23.04;99538.16;2619953;54;20049;-64
2022/06/17 12:01:43;;;;;;;0.90;0.90;;;;;;;28.46;23.19;99529.63;2618377;54;20042;-66
2022/06/17 12:04:36;;;;;;;1.30;0.90;;;;;;;28.64;22.49;99528.81;2619127;54;20133;-65
2022/06/17 12:07:22;;;;;;;3.85;1.45;;;;;;;28.81;22.69;99531.00;2620012;54;20023;-65
2022/06/17 12:09:56;;;;;;;1.88;1.08;;;;;;;28.96;22.27;99524.53;2619771;39;20408;-65
2022/06/17 12:12:27;;;;;;;1.60;1.00;;;;;;;29.00;22.36;99525.59;2618345;54;20027;-64
2022/06/17 12:15:04;;;;;;;1.15;0.80;;;;;;;29.00;22.19;99517.44;2618590;54;20042;-65
2022/06/17 12:17:34;;;;;;;1.20;0.93;;;;;;;28.94;22.29;99512.31;2618724;54;20034;-65
2022/06/17 12:20:11;;;;;;;3.63;0.70;;;;;;;28.79;22.63;99508.75;2618927;54;20033;-65
2022/06/17 12:22:50;;;;;;;1.33;0.95;;;;;;;29.03;22.63;99502.44;2618765;54;20110;-65
2022/06/17 12:25:41;;;;;;;3.60;1.33;;;;;;;29.25;22.13;99497.13;2620861;54;20042;-65
2022/06/17 12:28:20;;;;;;;2.22;1.30;;;;;;;29.30;21.95;99496.22;2620954;54;20074;-65
2022/06/17 12:31:01;;;;;;;3.90;1.20;;;;;;;29.37;21.88;99499.38;2621119;54;20034;-65
2022/06/17 12:33:40;;;;;;;2.70;1.27;;;;;;;29.51;21.96;99496.66;2620315;54;20034;-64
2022/06/17 12:36:19;;;;;;;1.45;0.90;;;;;;;29.63;22.32;99488.03;2621548;54;20035;-65
2022/06/17 12:39:00;;;;;;;2.25;1.02;;;;;;;29.82;21.05;99495.00;2621479;54;20030;-65
2022/06/17 12:41:36;;;;;;;1.25;0.80;;;;;;;29.64;21.40;99495.91;2621363;54;20581;-66
2022/06/17 12:44:17;;;;;;;0.70;0.70;;;;;;;29.48;22.00;99476.31;2621434;54;20038;-65
2022/06/17 12:46:56;;;;;;;1.35;0.90;;;;;;;29.48;21.91;99476.31;2621526;54;20139;-65
2022/06/17 12:55:30;;;;;;;1.95;0.93;;;;;;;29.89;21.56;99474.72;2619381;54;20041;-64
2022/06/17 12:58:08;;;;;;;1.40;0.93;;;;;;;29.99;21.78;99472.56;2619819;54;20038;-65
2022/06/17 13:00:43;;;;;;;3.58;1.13;;;;;;;30.19;21.51;99471.38;2619290;54;20027;-66
2022/06/17 13:03:36;;;;;;;2.13;0.95;;;;;;;30.49;21.26;99466.31;2619241;54;20036;-66
2022/06/17 13:06:16;;;;;;;2.53;1.27;;;;;;;30.53;21.04;99461.88;2619341;47;20018;-64
2022/06/17 13:08:57;;;;;;;1.38;1.23;;;;;;;30.46;21.77;99456.84;2619642;54;20034;-65
2022/06/17 13:11:42;;;;;;;1.83;1.10;;;;;;;30.22;21.73;99451.69;2619506;54;20041;-65
2022/06/17 13:14:24;;;;;;;1.20;1.10;;;;;;;30.19;21.55;99440.56;2618646;46;20023;-66
2022/06/17 13:17:04;;;;;;;1.13;0.77;;;;;;;30.34;21.77;99435.59;2619946;39;20430;-64
2022/06/17 13:19:41;;;;;;;3.72;1.40;;;;;;;30.56;21.42;99421.13;2619087;54;20034;-65
2022/06/17 13:22:25;;;;;;;4.25;1.17;;;;;;;30.51;21.06;99424.00;2619238;54;20034;-65
2022/06/17 13:25:03;;;;;;;0.90;0.80;;;;;;;30.42;20.82;99408.69;2621430;54;20043;-65
2022/06/17 13:27:42;;;;;;;2.33;0.90;;;;;;;30.46;21.32;99406.97;2623782;47;20041;-66
2022/06/17 13:30:18;;;;;;;2.53;1.33;;;;;;;30.72;21.42;99399.75;2623875;54;20038;-66
2022/06/17 13:32:52;;;;;;;0.82;0.82;;;;;;;30.81;21.30;99399.81;2622434;47;20532;-66
2022/06/17 13:35:26;;;;;;;2.60;1.00;;;;;;;30.97;20.82;99402.97;2621999;54;20129;-66
2022/06/17 13:38:00;;;;;;;1.30;0.63;;;;;;;31.07;20.20;99403.50;2619025;54;20053;-65
2022/06/17 13:40:35;;;;;;;0.70;0.70;;;;;;;31.24;20.41;99404.72;2619280;54;20042;-65
2022/06/17 13:43:14;;;;;;;1.20;1.00;;;;;;;31.26;20.44;99403.25;2618190;47;20549;-65
2022/06/17 13:45:51;;;;;;;1.10;0.88;;;;;;;31.45;19.95;99404.97;2619229;39;20426;-65
2022/06/17 13:48:26;;;;;;;1.15;1.02;;;;;;;31.50;19.08;99408.34;2618292;54;20026;-65
2022/06/17 13:51:07;;;;;;;0.93;0.80;;;;;;;31.53;19.49;99417.88;2618300;47;20053;-65
2022/06/17 13:53:52;;;;;;;1.00;0.80;;;;;;;31.68;19.12;99425.63;2618708;54;20030;-65
2022/06/17 13:56:37;;;;;;;2.67;0.80;;;;;;;31.64;18.99;99426.56;2619118;54;20031;-66
2022/06/17 13:59:31;;;;;;;0.88;0.88;;;;;;;31.64;18.90;99423.81;2618441;47;20041;-65
2022/06/17 14:02:25;;;;;;;1.73;0.77;;;;;;;31.66;18.89;99418.84;2618765;47;20038;-64
2022/06/17 14:05:28;;;;;;;0.80;0.60;;;;;;;31.74;18.81;99415.34;2618876;54;20026;-64
2022/06/17 14:08:01;;;;;;;4.88;0.80;;;;;;;31.84;18.47;99423.25;2619003;54;20030;-65
2022/06/17 14:10:36;;;;;;;2.78;0.90;;;;;;;31.95;18.91;99429.25;2619105;54;20549;-64
2022/06/17 14:13:21;;;;;;;1.58;0.90;;;;;;;32.00;19.03;99423.59;2618421;54;20042;-65
2022/06/17 14:15:57;;;;;;;0.70;0.70;;;;;;;32.08;19.03;99420.09;2618881;54;20031;-65
2022/06/17 14:18:31;;;;;;;1.35;0.70;;;;;;;32.06;18.87;99423.16;2618880;54;20042;-65
2022/06/17 14:21:09;;;;;;;1.27;0.80;;;;;;;31.96;18.59;99414.44;2618799;54;20042;-64
2022/06/17 14:23:52;;;;;;;5.05;1.17;;;;;;;31.97;19.30;99416.88;2618604;54;20045;-64
2022/06/17 14:26:57;;;;;;;0.65;0.65;;;;;;;32.03;18.32;99417.50;2619014;54;20549;-65
2022/06/17 14:29:30;;;;;;;1.02;0.93;;;;;;;32.10;18.54;99414.31;2618547;54;20042;-68
2022/06/17 14:32:05;;;;;;;0.93;0.82;;;;;;;32.26;18.87;99412.72;2618204;54;20026;-69
2022/06/17 14:35:03;;;;;;;1.33;0.98;;;;;;;32.28;18.34;99413.19;2617785;47;20019;-67
2022/06/17 14:37:51;;;;;;;4.55;1.15;;;;;;;32.26;18.15;99412.72;2618359;54;20537;-68
2022/06/17 14:40:25;;;;;;;1.85;0.80;;;;;;;32.17;17.81;99411.88;2618078;54;20034;-67
2022/06/17 14:43:02;;;;;;;2.10;1.02;;;;;;;32.14;17.73;99410.59;2617249;47;20552;-68
2022/06/17 14:45:57;;;;;;;0.73;0.70;;;;;;;32.26;17.77;99416.25;2617698;54;20793;-67
2022/06/17 14:48:40;;;;;;;2.05;1.00;;;;;;;32.32;17.81;99405.94;2617652;54;20030;-67